Flight Track Log - Related Links

Times and Time Zones

All times are in EDT time to prevent confusion due to time zone crossing. See the TAM3667 flight status page for this flight to view local times or setup timezone preferences in your user account.

Time Position Orientation Groundspeed Altitude Reporting Facility
EDT Latitude Longitude Course Direction KTS MPH feet Rate Location/Type
Mon 01:51:00 AM -7.4182 -43.2634 190° South  Level Estimated
Mon 01:52:00 AM -7.5125 -43.2811 191° South  Level Estimated
Mon 01:53:00 AM -7.6069 -43.2988 191° South  Level Estimated
Mon 01:54:00 AM -7.7012 -43.3165 191° South  Level Estimated
Mon 01:55:00 AM -7.7955 -43.3342 191° South  Level Estimated
Mon 01:56:00 AM -7.8898 -43.3519 191° South  Level Estimated
Mon 01:57:00 AM -7.9841 -43.3696 191° South  Level Estimated
Mon 01:58:00 AM -8.0785 -43.3874 191° South  Level Estimated
Mon 01:59:00 AM -8.1728 -43.4051 191° South  Level Estimated
Mon 02:00:00 AM -8.2671 -43.4229 191° South  Level Estimated
Mon 02:01:00 AM -8.3614 -43.4406 191° South  Level Estimated
Mon 02:02:00 AM -8.4558 -43.4584 191° South  Level Estimated
Mon 02:03:00 AM -8.5501 -43.4762 191° South  Level Estimated
Mon 02:04:00 AM -8.6444 -43.4939 191° South  Level Estimated
Mon 02:05:00 AM -8.7387 -43.5117 191° South  Level Estimated
Mon 02:06:00 AM -8.8330 -43.5295 191° South  Level Estimated
Mon 02:07:00 AM -8.9273 -43.5474 191° South  Level Estimated
Mon 02:08:00 AM -9.0216 -43.5652 191° South  Level Estimated
Mon 02:09:00 AM -9.1159 -43.5830 191° South  Level Estimated
Mon 02:10:00 AM -9.2102 -43.6008 191° South  Level Estimated
Mon 02:11:00 AM -9.3046 -43.6187 191° South  Level Estimated
Mon 02:12:00 AM -9.3989 -43.6366 191° South  Level Estimated
Mon 02:13:00 AM -9.4932 -43.6544 191° South  Level Estimated
Mon 02:14:00 AM -9.5875 -43.6723 191° South  Level Estimated
Mon 02:15:00 AM -9.6818 -43.6902 191° South  Level Estimated
Mon 02:16:00 AM -9.7761 -43.7081 191° South  Level Estimated
Mon 02:17:00 AM -9.8704 -43.7260 191° South  Level Estimated
Mon 02:18:00 AM -9.9647 -43.7439 191° South  Level Estimated
Mon 02:19:00 AM -10.0590 -43.7618 191° South  Level Estimated
Mon 02:20:00 AM -10.1533 -43.7798 191° South  Level Estimated
Mon 02:21:00 AM -10.2476 -43.7977 191° South  Level Estimated
Mon 02:22:00 AM -10.3419 -43.8157 191° South  Level Estimated
Mon 02:23:00 AM -10.4362 -43.8337 191° South  Level Estimated
Mon 02:24:00 AM -10.5305 -43.8517 191° South  Level Estimated
Mon 02:25:00 AM -10.6248 -43.8696 191° South  Level Estimated
Mon 02:26:00 AM -10.7191 -43.8876 191° South  Level Estimated
Mon 02:27:00 AM -10.8134 -43.9057 191° South  Level Estimated
Mon 02:28:00 AM -10.9076 -43.9237 191° South  Level Estimated
Mon 02:29:00 AM -11.0019 -43.9417 191° South  Level Estimated
Mon 02:30:00 AM -11.0962 -43.9598 191° South  Level Estimated
Mon 02:31:00 AM -11.1905 -43.9778 191° South  Level Estimated
Mon 02:32:00 AM -11.2848 -43.9959 191° South  Level Estimated
Mon 02:33:00 AM -11.3791 -44.0140 191° South  Level Estimated
Mon 02:34:00 AM -11.4734 -44.0321 191° South  Level Estimated
Mon 02:35:00 AM -11.5677 -44.0502 191° South  Level Estimated
Mon 02:36:00 AM -11.6620 -44.0683 191° South  Level Estimated
Mon 02:37:00 AM -11.7562 -44.0865 191° South  Level Estimated
Mon 02:38:00 AM -11.8505 -44.1046 191° South  Level Estimated
Mon 02:39:00 AM -11.9448 -44.1228 191° South  Level Estimated
Mon 02:40:00 AM -12.0391 -44.1409 191° South  Level Estimated
Mon 02:41:00 AM -12.1334 -44.1591 191° South  Level Estimated
Mon 02:42:00 AM -12.2276 -44.1773 191° South  Level Estimated
Mon 02:43:00 AM -12.3219 -44.1955 191° South  Level Estimated
Mon 02:44:00 AM -12.4162 -44.2137 191° South  Level Estimated
Mon 02:45:00 AM -12.5105 -44.2320 191° South  Level Estimated
Mon 02:46:00 AM -12.6047 -44.2502 191° South  Level Estimated
Mon 02:47:00 AM -12.6990 -44.2685 191° South  Level Estimated
Mon 02:48:00 AM -12.7933 -44.2868 191° South  Level Estimated
Mon 02:49:00 AM -12.8875 -44.3051 191° South  Level Estimated
Mon 02:50:00 AM -12.9818 -44.3234 191° South  Level Estimated
Mon 02:51:00 AM -13.0761 -44.3417 191° South  Level Estimated
Mon 02:52:00 AM -13.1703 -44.3600 191° South  Level Estimated
Mon 02:53:00 AM -13.2646 -44.3784 191° South  Level Estimated
Mon 02:54:00 AM -13.3588 -44.3967 191° South  Level Estimated
Mon 02:55:00 AM -13.4531 -44.4151 191° South  Level Estimated
Mon 02:56:00 AM -13.5474 -44.4335 191° South  Level Estimated
Mon 02:56:58 AM -15.9250 -44.3750 191° South 432 497 36,000  Level FlightAware ADS-B
Mon 02:57:00 AM -13.6416 -44.4519 191° South  Level Estimated
Mon 02:57:33 AM -15.9900 -44.4060 205° Southwest 431 496 36,000  Level FlightAware ADS-B
Mon 02:58:08 AM -16.0500 -44.4340 204° Southwest 431 496 36,000  Level FlightAware ADS-B
Mon 02:58:43 AM -16.1180 -44.4660 204° Southwest 431 496 36,000  Level FlightAware ADS-B
Mon 02:59:18 AM -16.1780 -44.4940 204° Southwest 430 495 36,000  Level FlightAware ADS-B
Mon 02:59:53 AM -16.2430 -44.5250 205° Southwest 430 495 36,000  Level FlightAware ADS-B
Mon 03:00:26 AM -16.2900 -44.5470 204° Southwest 430 495 36,000  Level FlightAware ADS-B
Mon 03:01:02 AM -16.3480 -44.5750 205° Southwest 430 495 36,000  Level FlightAware ADS-B
Mon 03:01:37 AM -16.4250 -44.6120 205° Southwest 430 495 36,000  Level FlightAware ADS-B
Mon 03:02:21 AM -16.5120 -44.6530 204° Southwest 431 496 36,000  Level FlightAware ADS-B
Mon 03:02:56 AM -16.5700 -44.6800 204° Southwest 431 496 36,000  Level FlightAware ADS-B
Mon 03:03:31 AM -16.6400 -44.7130 204° Southwest 432 497 36,000  Level FlightAware ADS-B
Mon 03:04:11 AM -16.7110 -44.7470 205° Southwest 431 496 36,000  Level FlightAware ADS-B
Mon 03:04:46 AM -16.7770 -44.7780 204° Southwest 431 496 36,000  Level FlightAware ADS-B
Mon 03:05:26 AM -16.8500 -44.8130 205° Southwest 430 495 36,000  Level FlightAware ADS-B
Mon 03:06:01 AM -16.9130 -44.8430 204° Southwest 431 496 36,000  Level FlightAware ADS-B
Mon 03:06:41 AM -16.9830 -44.8770 205° Southwest 431 496 36,000  Level FlightAware ADS-B
Mon 03:07:16 AM -17.0460 -44.9070 204° Southwest 431 496 36,000  Level FlightAware ADS-B
Mon 03:07:46 AM -17.1050 -44.9350 204° Southwest 430 495 36,000  Level FlightAware ADS-B
Mon 03:08:21 AM -17.1680 -44.9650 204° Southwest 430 495 36,000  Level FlightAware ADS-B
Mon 03:09:01 AM -17.2390 -44.9990 205° Southwest 429 494 36,000  Level FlightAware ADS-B
Mon 03:09:31 AM -17.2940 -45.0250 204° Southwest 428 493 36,000  Level FlightAware ADS-B
Mon 03:10:06 AM -17.3520 -45.0530 205° Southwest 426 490 36,000  Level FlightAware ADS-B
Mon 03:10:41 AM -17.4200 -45.0860 205° Southwest 424 488 36,000  Level FlightAware ADS-B
Mon 03:11:27 AM -17.4870 -45.1180 204° Southwest 423 487 36,000  Level FlightAware ADS-B
Mon 03:11:59 AM -17.5550 -45.1510 205° Southwest 422 486 36,000  Level FlightAware ADS-B
Mon 03:12:35 AM -17.6200 -45.1820 204° Southwest 421 484 36,000  Level FlightAware ADS-B
Mon 03:13:10 AM -17.6840 -45.2130 205° Southwest 421 484 36,000  Level FlightAware ADS-B
Mon 03:13:45 AM -17.7410 -45.2400 204° Southwest 421 484 36,000  Level FlightAware ADS-B
Mon 03:14:26 AM -17.8150 -45.2760 205° Southwest 423 487 36,000  Level FlightAware ADS-B
Mon 03:14:59 AM -17.8770 -45.3060 205° Southwest 424 488 36,000  Level FlightAware ADS-B
Mon 03:15:39 AM -17.9510 -45.3410 204° Southwest 424 488 36,000  Level FlightAware ADS-B
Mon 03:16:15 AM -18.0080 -45.3690 205° Southwest 423 487 36,000  Level FlightAware ADS-B
Mon 03:16:45 AM -18.0640 -45.3960 205° Southwest 421 484 36,000  Level FlightAware ADS-B
Mon 03:17:19 AM -18.1270 -45.4270 205° Southwest 421 484 36,000  Level FlightAware ADS-B
Mon 03:18:01 AM -18.2020 -45.4630 205° Southwest 420 483 36,000  Level FlightAware ADS-B
Mon 03:18:36 AM -18.2640 -45.4930 205° Southwest 421 484 36,000  Level FlightAware ADS-B
Mon 03:19:12 AM -18.3270 -45.5240 205° Southwest 421 484 36,000  Level FlightAware ADS-B
Mon 03:19:51 AM -18.3940 -45.5560 204° Southwest 423 487 36,000  Level FlightAware ADS-B
Mon 03:20:26 AM -18.4600 -45.5880 205° Southwest 423 487 36,000  Level FlightAware ADS-B
Mon 03:20:56 AM -18.5140 -45.6150 205° Southwest 422 486 36,000  Level FlightAware ADS-B
Mon 03:21:31 AM -18.5740 -45.6440 205° Southwest 422 486 36,000  Level FlightAware ADS-B
Mon 03:22:11 AM -18.6410 -45.6770 205° Southwest 421 484 36,000  Level FlightAware ADS-B
Mon 03:22:41 AM -18.7000 -45.7050 204° Southwest 422 486 36,000  Level FlightAware ADS-B
Mon 03:23:26 AM -18.7800 -45.7440 205° Southwest 423 487 36,000  Level FlightAware ADS-B
Mon 03:24:01 AM -18.8430 -45.7750 205° Southwest 423 487 36,000  Level FlightAware ADS-B
Mon 03:24:36 AM -18.9050 -45.8050 205° Southwest 422 486 36,000  Level FlightAware ADS-B
Mon 03:25:11 AM -18.9650 -45.8350 205° Southwest 422 486 36,000  Level FlightAware ADS-B
Mon 03:25:46 AM -19.0300 -45.8660 204° Southwest 422 486 36,000  Level FlightAware ADS-B
Mon 03:26:21 AM -19.0920 -45.8970 205° Southwest 421 484 36,000  Level FlightAware ADS-B
Mon 03:26:56 AM -19.1520 -45.9260 205° Southwest 421 484 36,000  Level FlightAware ADS-B
Mon 03:27:31 AM -19.2150 -45.9570 205° Southwest 421 484 36,000  Level FlightAware ADS-B
Mon 03:28:11 AM -19.2840 -45.9910 205° Southwest 421 484 36,000  Level FlightAware ADS-B
Mon 03:28:46 AM -19.3490 -46.0230 205° Southwest 421 484 36,000  Level FlightAware ADS-B
Mon 03:29:21 AM -19.4100 -46.0530 205° Southwest 421 484 36,000  Level FlightAware ADS-B
Mon 03:30:01 AM -19.4820 -46.0880 205° Southwest 420 483 36,000  Level FlightAware ADS-B
Mon 03:30:28 AM -19.5230 -46.1090 206° Southwest 421 484 36,000  Level FlightAware ADS-B
Mon 03:31:06 AM -19.5960 -46.1450 205° Southwest 420 483 36,000  Level FlightAware ADS-B
Mon 03:31:41 AM -19.6580 -46.1760 205° Southwest 420 483 36,000  Level FlightAware ADS-B
Mon 03:32:21 AM -19.7280 -46.2100 205° Southwest 421 484 36,000  Level FlightAware ADS-B
Mon 03:32:51 AM -19.7820 -46.2370 205° Southwest 421 484 36,000  Level FlightAware ADS-B
Mon 03:33:21 AM -19.8340 -46.2620 204° Southwest 421 484 36,000  Level FlightAware ADS-B
Mon 03:33:56 AM -19.8970 -46.2930 205° Southwest 422 486 36,000  Level FlightAware ADS-B
Mon 03:34:31 AM -19.9580 -46.3240 206° Southwest 422 486 36,000  Level FlightAware ADS-B
Mon 03:35:06 AM -20.0220 -46.3560 205° Southwest 421 484 36,000  Level FlightAware ADS-B
Mon 03:35:44 AM -20.0840 -46.3860 204° Southwest 422 486 36,000  Level FlightAware ADS-B
Mon 03:36:16 AM -20.1440 -46.4160 205° Southwest 421 484 36,000  Level FlightAware ADS-B
Mon 03:36:51 AM -20.2080 -46.4480 205° Southwest 421 484 36,000  Level FlightAware ADS-B
Mon 03:37:26 AM -20.2700 -46.4790 205° Southwest 421 484 36,000  Level FlightAware ADS-B
Mon 03:38:01 AM -20.3300 -46.5090 205° Southwest 421 484 36,000  Level FlightAware ADS-B
Mon 03:38:36 AM -20.3910 -46.5400 205° Southwest 421 484 36,000  Level FlightAware ADS-B
Mon 03:39:11 AM -20.4550 -46.5710 204° Southwest 422 486 36,000  Level FlightAware ADS-B
Mon 03:39:51 AM -20.5260 -46.6070 205° Southwest 423 487 36,000  Level FlightAware ADS-B
Mon 03:40:26 AM -20.5870 -46.6370 205° Southwest 423 487 36,000  Level FlightAware ADS-B
Mon 03:41:02 AM -20.6460 -46.6670 205° Southwest 423 487 36,000  Level FlightAware ADS-B
Mon 03:41:41 AM -20.7210 -46.7050 205° Southwest 423 487 36,000  Level FlightAware ADS-B
Mon 03:42:16 AM -20.7830 -46.7360 205° Southwest 423 487 36,000  Level FlightAware ADS-B
Mon 03:42:46 AM -20.8350 -46.7620 205° Southwest 423 487 36,000  Level FlightAware ADS-B
Mon 03:43:21 AM -20.8920 -46.7900 205° Southwest 423 487 36,000  Level FlightAware ADS-B
Mon 03:44:01 AM -20.9690 -46.8290 205° Southwest 422 486 36,000  Level FlightAware ADS-B
Mon 03:44:36 AM -21.0280 -46.8590 205° Southwest 421 484 36,000  Level FlightAware ADS-B
Mon 03:45:06 AM -21.0840 -46.8870 205° Southwest 420 483 36,000  Level FlightAware ADS-B
Mon 03:45:46 AM -21.1520 -46.9210 205° Southwest 419 482 36,000  Level FlightAware ADS-B
Mon 03:46:16 AM -21.2040 -46.9480 206° Southwest 418 481 36,000  Level FlightAware ADS-B
Mon 03:46:51 AM -21.2660 -46.9790 205° Southwest 418 481 36,000  Level FlightAware ADS-B
Mon 03:47:26 AM -21.3310 -47.0120 205° Southwest 419 482 36,000  Level FlightAware ADS-B
Mon 03:48:06 AM -21.4010 -47.0470 205° Southwest 420 483 36,000  Level FlightAware ADS-B
Mon 03:48:41 AM -21.4550 -47.0750 206° Southwest 421 484 36,000  Level FlightAware ADS-B
Mon 03:49:11 AM -21.5150 -47.1050 205° Southwest 420 483 36,000  Level FlightAware ADS-B
Mon 03:49:49 AM -21.5810 -47.1390 206° Southwest 419 482 36,000  Level FlightAware ADS-B
Mon 03:50:22 AM -21.6400 -47.1690 205° Southwest 419 482 36,000  Level FlightAware ADS-B
Mon 03:50:54 AM -21.6960 -47.1970 205° Southwest 419 482 36,000  Level FlightAware ADS-B
Mon 03:51:30 AM -21.7590 -47.2290 205° Southwest 420 483 36,000  Level FlightAware ADS-B
Mon 03:52:02 AM -21.8160 -47.2580 205° Southwest 420 483 36,000  Level FlightAware ADS-B
Mon 03:52:38 AM -21.8780 -47.2900 206° Southwest 421 484 36,000 -917 Level FlightAware ADS-B
Mon 03:53:14 AM -21.9450 -47.3210 203° Southwest 432 497 34,900 -1,953 Descending FlightAware ADS-B
Mon 03:54:04 AM -22.0430 -47.3200 179° South 458 527 33,200 -2,372 Descending FlightAware ADS-B
Mon 03:54:40 AM -22.1170 -47.2900 159° South 470 541 31,500 -2,824 Descending FlightAware ADS-B
Mon 03:55:12 AM -22.1830 -47.2630 159° South 473 544 30,000 -1,853 Descending FlightAware ADS-B
Mon 03:55:48 AM -22.2540 -47.2330 159° South 449 517 29,400 -1,750 Descending FlightAware ADS-B
Mon 03:56:24 AM -22.3220 -47.2050 159° South 448 516 27,900 -2,197 Descending FlightAware ADS-B
Mon 03:56:59 AM -22.3930 -47.1760 159° South 436 502 26,800 -1,588 Descending FlightAware ADS-B
Mon 03:57:32 AM -22.4540 -47.1500 159° South 419 482 26,100 -1,478 Descending FlightAware ADS-B
Mon 03:58:08 AM -22.5160 -47.1230 158° South 407 468 25,100 -1,500 Descending FlightAware ADS-B
Mon 03:58:44 AM -22.5780 -47.0970 159° South 391 450 24,300 -1,667 Descending FlightAware ADS-B
Mon 03:59:20 AM -22.6370 -47.0720 159° South 380 437 23,100 -2,294 Descending FlightAware ADS-B
Mon 03:59:52 AM -22.6900 -47.0500 159° South 374 430 21,700 -2,559 Descending FlightAware ADS-B
Mon 04:00:28 AM -22.7510 -47.0250 159° South 368 423 20,200 -2,366 Descending FlightAware ADS-B
Mon 04:01:03 AM -22.8050 -47.0020 159° South 358 412 18,900 -2,583 Descending FlightAware ADS-B
Mon 04:01:40 AM -22.8600 -46.9790 159° South 355 409 17,100 -2,957 Descending FlightAware ADS-B
Mon 04:02:12 AM -22.9120 -46.9570 159° South 345 397 15,500 -2,647 Descending FlightAware ADS-B
Mon 04:02:48 AM -22.9640 -46.9350 159° South 339 390 14,100 -2,167 Descending FlightAware ADS-B
Mon 04:03:24 AM -23.0160 -46.9130 159° South 326 375 12,900 -2,167 Descending FlightAware ADS-B
Mon 04:04:00 AM -23.0670 -46.8920 159° South 325 374 11,500 -1,853 Descending FlightAware ADS-B
Mon 04:04:32 AM -23.1100 -46.8740 159° South 301 346 10,800 -1,500 Descending FlightAware ADS-B
Mon 04:05:00 AM -23.1450 -46.8590 158° South 288 331 10,000 -2,077 Descending FlightAware ADS-B
Mon 04:05:24 AM -23.1770 -46.8450 158° South 288 331 9,000 -2,455 Descending FlightAware ADS-B
Mon 04:05:44 AM -23.2010 -46.8350 159° South 288 331 8,200 -1,950 Descending FlightAware ADS-B
Mon 04:06:04 AM -23.2260 -46.8250 160° South 289 333 7,700 -1,500 Descending FlightAware ADS-B
Mon 04:06:16 AM -23.2410 -46.8180 157° South 289 333 7,400 -1,000 Descending FlightAware ADS-B
Mon 04:06:40 AM -23.2700 -46.8060 159° South 276 318 7,100 -682 Descending FlightAware ADS-B
Mon 04:07:00 AM -23.2940 -46.7960 159° South 266 306 6,900 -750 Descending FlightAware ADS-B
Mon 04:07:12 AM -23.3070 -46.7910 161° South 259 298 6,700 -667 Descending FlightAware ADS-B
Mon 04:07:36 AM -23.3330 -46.7790 157° South 246 283 6,500 -682 Descending FlightAware ADS-B
Mon 04:07:56 AM -23.3540 -46.7710 161° South 240 276 6,200 -900 Descending FlightAware ADS-B
Mon 04:08:16 AM -23.3730 -46.7610 154° Southeast 239 275 5,900 -857 Descending FlightAware ADS-B
Mon 04:08:24 AM -23.3810 -46.7550 145° Southeast 235 270 5,800 -857 Descending FlightAware ADS-B
Mon 04:08:44 AM -23.3970 -46.7400 139° Southeast 228 262 5,500 -833 Descending FlightAware ADS-B
Mon 04:09:00 AM -23.4090 -46.7280 137° Southeast 223 257 5,300 -563 Descending FlightAware ADS-B
Mon 04:09:16 AM -23.4220 -46.7160 140° Southeast 214 246 5,200 -300 Descending FlightAware ADS-B
Mon 04:09:40 AM -23.4390 -46.7000 139° Southeast 196 226 5,100 -300 Descending FlightAware ADS-B
Mon 04:09:56 AM -23.4490 -46.6890 135° Southeast 190 219 5,000 -667 Descending FlightAware ADS-B
Mon 04:10:16 AM -23.4570 -46.6720 117° Southeast 186 214 4,700 -750 Descending FlightAware ADS-B
Mon 04:10:28 AM -23.4610 -46.6620 114° Southeast 184 212 4,600 -167 Descending FlightAware ADS-B
Mon 04:10:52 AM -23.4700 -46.6410 115° Southeast 184 212 4,600  Level FlightAware ADS-B
Mon 04:11:02 AM -23.4730 -46.6320 110° East 184 212 4,600  Level FlightAware ADS-B
Mon 04:11:21 AM -23.4740 -46.6250 99° East 183 211 4,600 -409 Level FlightAware ADS-B
Mon 04:11:46 AM -23.4680 -46.5940 78° East 175 201 4,300 -878 Descending FlightAware ADS-B
Mon 04:12:02 AM -23.4640 -46.5810 71° East 175 201 4,000 -833 Descending FlightAware ADS-B
Mon 04:12:22 AM -23.4600 -46.5650 75° East 159 183 3,800 -682 Descending FlightAware ADS-B
Mon 04:12:46 AM -23.4550 -46.5480 72° East 146 168 3,500 -923 Descending FlightAware ADS-B
Mon 04:13:01 AM -23.4520 -46.5360 75° East 143 165 3,200 -833 Descending FlightAware ADS-B
Mon 04:13:22 AM -23.4480 -46.5220 73° East 144 166 3,000 -581 Descending FlightAware ADS-B
Mon 04:13:32 AM -23.4460 -46.5140 75° East 143 165 2,900 -706 Descending FlightAware ADS-B
Mon 04:13:56 AM -23.4420 -46.4980 75° East 143 165 2,600 -682 Descending FlightAware ADS-B
Mon 04:14:16 AM -23.4380 -46.4840 73° East 143 165 2,400 -600 Descending FlightAware ADS-B

Login

Don't have an account? Register now (free) for customized features, flight alerts, and more!